Date,TemperatureHighF,TemperatureAvgF,TemperatureLowF,DewpointHighF,DewpointAvgF,DewpointLowF,HumidityHigh,HumidityAvg,HumidityLow,PressureMaxIn,PressureMinIn,WindSpeedMaxMPH,WindSpeedAvgMPH,GustSpeedMaxMPH,PrecipitationSumIn
2013-2-7,28.4,25.5,23.6,-1.2,-2.8,-4.5,33,29,24,30.52,30.47,11,1,11,0.00
2013-2-8,24.5,20.4,17.3,17.6,14.0,-1.4,90,78,32,30.50,29.69,27,6,27,0.00
2013-2-9,39.4,19.5,15.5,24.9,13.5,3.8,91,78,56,30.18,29.63,30,6,30,0.00
2013-2-10,45.9,24.6,12.6,17.5,6.1,0.6,66,47,24,30.39,30.18,12,2,12,0.00
2013-2-11,36.5,27.0,11.9,31.5,20.7,3.3,90,77,65,30.34,29.61,5,0,5,0.00
2013-2-12,54.4,39.2,33.3,34.8,29.3,26.7,92,69,42,29.86,29.58,19,5,19,0.00
2013-2-13,54.7,36.6,25.9,33.3,24.3,19.8,82,62,38,29.86,29.72,10,2,10,0.00
2013-2-14,51.5,36.1,27.4,28.6,22.6,20.2,82,59,37,29.99,29.70,13,2,13,0.00
2013-2-15,51.3,36.7,22.1,33.1,26.8,17.4,92,69,48,29.99,29.88,14,3,14,0.00
2013-2-16,40.9,35.1,28.4,32.5,25.3,14.5,88,69,52,29.95,29.73,13,2,13,0.00
2013-2-17,29.7,22.2,17.3,16.0,9.8,2.1,86,60,44,29.73,29.38,29,9,29,0.00
2013-2-18,35.5,23.8,14.6,7.5,1.9,-2.6,56,40,25,30.13,29.65,21,7,21,0.00
2013-2-19,45.9,35.3,22.7,38.5,20.3,2.6,92,56,34,30.15,29.57,10,2,10,0.00
2013-2-20,40.3,33.6,27.2,38.7,21.4,12.4,94,62,42,29.76,29.52,21,6,21,0.00
2013-2-21,36.4,27.6,24.5,15.4,13.4,10.0,66,55,37,30.19,29.75,20,6,20,0.00
2013-2-22,49.5,33.8,24.7,25.4,20.0,15.2,75,58,35,30.39,30.19,16,2,16,0.00
2013-2-23,39.2,35.0,30.8,31.4,27.8,22.5,88,75,65,30.34,29.94,8,1,8,0.00
2013-2-24,35.3,33.6,31.0,32.9,31.3,28.7,92,91,88,29.94,29.72,19,3,19,0.00
2013-2-25,41.8,34.9,30.2,34.3,31.1,27.0,91,86,71,30.24,29.90,5,1,6,0.00
2013-2-26,45.7,35.9,29.5,36.8,30.1,26.5,92,80,61,30.34,30.18,7,1,7,0.00
2013-2-27,48.6,37.2,33.8,39.0,34.3,29.0,93,89,67,30.19,29.57,20,4,20,0.93
2013-2-28,49.0,40.3,34.2,40.5,34.7,32.0,93,81,62,29.64,29.53,11,2,14,0.00
2013-3-1,41.8,38.1,32.8,33.8,30.6,27.8,89,75,63,29.69,29.54,10,2,10,0.00
2013-3-2,48.4,38.7,31.9,32.7,27.7,25.2,78,65,52,29.68,29.62,10,3,10,0.00
2013-3-3,43.2,36.4,31.3,33.9,28.2,24.8,82,72,63,29.65,29.56,13,3,13,0.00
2013-3-4,42.8,35.0,30.8,27.9,24.4,22.0,79,66,49,29.74,29.58,22,6,22,0.00
2013-3-5,52.7,38.1,30.6,32.8,27.1,21.6,87,66,43,30.08,29.74,17,3,17,0.01
2013-3-6,38.9,36.3,32.8,34.9,32.3,28.9,92,86,70,30.15,30.06,26,6,26,0.13
2013-3-7,34.9,32.5,31.0,31.2,29.2,26.6,92,87,81,30.12,30.02,26,6,26,0.08
2013-3-8,42.3,35.0,29.9,33.1,27.6,21.6,94,77,49,30.17,29.97,21,5,21,0.12
2013-3-9,57.2,38.2,26.1,30.3,24.0,17.6,84,59,30,30.36,30.16,17,2,17,0.03
2013-3-10,49.7,35.3,22.0,37.3,27.7,18.4,88,75,53,30.42,30.31,8,1,8,0.00
2013-3-11,54.2,42.9,32.4,40.1,33.9,29.0,91,73,46,30.32,30.14,11,4,11,0.00
2013-3-12,54.9,48.1,40.5,52.6,44.9,37.1,95,89,80,30.16,29.72,12,2,12,0.40
2013-3-13,58.9,45.9,34.0,51.5,32.4,21.4,95,62,36,29.78,29.71,18,4,18,0.00
2013-3-14,40.5,34.5,31.1,24.2,19.4,13.7,73,55,37,29.78,29.70,16,4,16,0.00
2013-3-17,40.0,32.6,24.8,10.2,5.4,1.4,37,32,26,30.33,30.04,18,5,18,0.00
2013-3-18,40.7,29.6,16.2,26.9,7.9,-0.5,86,42,22,30.46,30.25,10,2,10,0.00
2013-3-19,34.9,32.0,27.0,32.5,29.2,24.1,93,89,80,30.25,29.65,17,3,17,0.12
2013-3-20,38.2,31.8,25.9,27.4,23.0,19.9,91,71,51,29.81,29.70,23,5,23,0.03
2013-3-21,41.2,32.1,21.1,27.6,20.7,14.3,86,65,39,29.81,29.61,8,2,8,0.18
2013-3-22,47.2,35.3,28.4,26.9,21.7,18.2,83,58,36,29.73,29.60,15,4,15,0.16
2013-3-23,45.7,36.4,27.7,24.5,20.7,18.2,75,54,38,29.77,29.63,21,6,21,0.00
2013-3-24,51.7,40.5,32.8,28.0,24.2,20.9,67,53,38,29.82,29.74,16,4,17,0.00
2013-3-25,49.3,37.7,29.3,34.7,28.6,23.7,80,70,56,29.78,29.56,17,3,17,0.00
2013-3-26,56.5,43.7,35.5,27.8,23.9,19.4,71,48,29,29.78,29.56,21,4,21,0.00
2013-3-27,60.3,44.6,30.4,32.3,25.2,20.3,72,49,29,29.88,29.74,16,4,16,0.00
2013-3-28,52.4,44.1,36.7,36.5,32.8,28.5,86,66,43,30.02,29.88,12,2,12,0.01
2013-3-29,61.6,47.4,37.1,38.4,32.2,28.6,77,57,34,30.05,29.97,15,3,15,0.00
2013-3-30,63.4,48.0,35.6,32.7,25.2,16.3,74,45,20,30.11,30.01,16,3,16,0.00
2013-3-31,61.4,45.4,27.2,39.6,25.2,19.9,77,50,21,30.12,29.77,19,4,19,0.05
2013-4-1,61.9,47.6,35.1,46.6,35.5,12.1,90,66,35,29.78,29.51,20,5,20,0.32
2013-4-2,41.9,35.6,29.3,15.8,12.4,8.7,52,39,28,29.92,29.78,23,7,23,0.00
2013-4-3,47.0,38.3,29.9,15.3,11.0,4.1,50,34,18,30.14,29.90,22,8,22,0.00
2013-4-4,56.2,44.5,31.0,23.2,15.5,8.4,53,34,17,30.29,30.01,16,5,16,0.00
2013-4-5,61.6,49.6,38.7,29.5,25.0,19.2,68,41,21,30.02,29.64,23,5,23,0.00
2013-4-6,45.9,38.6,30.6,22.1,10.2,0.9,52,33,17,30.34,29.89,21,5,21,0.00
2013-4-7,57.1,42.6,26.3,39.0,24.5,13.1,73,51,27,30.34,29.98,22,5,22,0.00
2013-4-8,65.5,53.6,43.6,42.2,37.3,30.3,88,58,29,30.11,29.95,14,3,14,0.00
2013-4-9,71.8,56.8,45.5,51.6,42.8,36.7,86,62,39,30.10,29.87,18,3,18,0.04
2013-4-10,61.6,52.2,45.9,50.6,45.7,40.5,92,79,63,30.03,29.87,7,2,7,0.56
2013-4-11,55.1,47.5,42.8,47.2,39.0,25.8,93,74,41,30.16,29.85,10,2,10,0.12
2013-4-12,42.8,37.9,35.8,35.9,32.8,26.7,93,83,55,30.20,29.82,17,3,17,0.42
2013-4-13,55.1,43.2,34.9,41.0,35.9,32.8,93,78,51,29.87,29.78,14,3,14,0.09
2013-4-14,57.6,48.1,41.2,39.2,32.6,27.1,85,57,32,30.22,29.92,17,4,17,0.00
2013-4-15,59.4,46.6,32.9,37.3,32.1,27.5,83,59,33,30.40,30.22,9,2,11,0.00
2013-4-16,68.4,53.1,37.6,51.8,41.2,32.9,90,66,41,30.41,30.04,24,6,25,0.00
2013-4-17,68.9,57.8,46.3,52.7,41.1,27.9,79,57,25,30.34,30.05,17,5,17,0.00
2013-4-18,63.7,52.2,36.2,43.0,32.8,27.0,79,51,29,30.45,30.16,18,4,18,0.00
2013-4-19,76.9,64.7,52.9,62.4,56.1,42.7,93,75,53,30.17,29.63,25,8,25,0.00
2013-4-20,68.8,55.5,46.4,63.4,50.2,37.2,91,83,48,29.86,29.61,20,6,20,0.36
2013-4-21,54.4,46.0,34.4,28.0,21.6,16.0,66,40,23,30.70,30.22,20,3,20,0.00
2013-4-22,57.8,43.6,32.6,34.9,29.0,23.7,81,59,30,30.78,30.61,17,3,17,0.00
2013-4-23,41.9,39.8,36.4,39.7,35.8,28.5,93,86,70,30.62,30.16,17,4,17,0.02
2013-4-24,76.3,58.3,41.6,52.4,45.3,35.7,93,66,24,30.16,29.78,17,4,17,0.00
2013-4-25,67.3,57.6,44.3,52.0,36.2,24.1,89,49,23,30.28,29.82,15,5,15,0.02
2013-4-26,66.1,48.8,37.4,36.7,31.4,29.1,74,54,28,30.43,30.28,13,2,13,0.00
2013-4-30,73.6,63.6,47.9,31.2,27.3,20.6,49,27,18,30.39,30.29,13,2,13,0.00
2013-5-1,76.0,58.5,38.5,40.3,33.2,28.5,77,43,19,30.48,30.38,12,2,12,0.00
2013-5-2,84.6,53.2,42.5,47.3,38.1,33.9,81,59,18,30.51,30.36,17,1,17,0.00
2013-5-3,64.4,51.9,42.7,44.4,39.9,36.0,84,65,43,30.54,30.39,12,2,15,0.00
2013-5-4,66.4,52.3,40.7,47.0,37.8,29.2,86,61,29,30.39,30.31,13,2,13,0.00
2013-5-5,67.0,44.5,36.0,42.6,35.4,31.6,87,73,37,30.35,30.25,12,1,12,0.00
2013-5-6,69.3,42.2,38.0,46.0,36.2,33.1,91,80,38,30.31,30.23,7,1,7,0.00
2013-5-7,81.0,66.2,43.0,58.2,50.1,38.8,88,60,26,30.18,30.09,12,3,12,0.00
2013-5-8,78.3,65.2,53.6,62.7,57.1,49.2,88,76,51,30.22,30.07,14,2,14,0.05
2013-5-9,66.6,60.2,56.5,61.8,57.3,54.2,93,90,79,30.07,29.90,6,1,9,0.52
2013-5-10,81.7,61.3,56.2,62.9,55.9,54.1,95,85,41,29.97,29.90,9,1,9,0.00
2013-5-11,71.6,63.7,59.4,62.2,58.8,54.3,93,85,70,29.92,29.71,16,3,16,0.18
2013-5-12,72.4,62.2,50.9,60.8,50.6,28.6,95,69,34,29.81,29.57,18,3,18,0.06
2013-5-13,61.4,51.8,42.7,32.9,29.4,26.0,66,43,29,30.04,29.81,17,4,17,0.00
2013-5-14,63.4,52.6,40.7,36.4,30.7,26.3,71,45,27,30.06,29.98,19,3,19,0.00
2013-5-15,69.3,53.7,36.0,51.9,38.5,29.2,87,61,24,30.06,29.68,17,4,17,0.04
2013-5-16,82.6,66.9,45.0,50.2,40.8,31.5,92,48,18,29.84,29.63,21,5,21,0.01
2013-5-17,70.7,60.9,50.6,43.5,39.7,35.4,68,47,29,30.23,29.83,17,3,17,0.00
2013-5-18,77.6,60.1,43.7,48.6,42.8,35.3,85,57,24,30.32,30.22,9,1,9,0.00
2013-5-19,73.8,59.1,51.8,55.5,50.5,46.5,92,75,46,30.36,30.23,10,1,10,0.27
2013-5-20,83.3,68.5,56.2,65.0,59.9,53.6,95,76,50,30.23,29.93,9,2,9,0.09
2013-5-21,74.7,60.7,50.9,65.9,56.0,48.1,92,85,69,30.06,29.91,12,2,12,0.04
2013-5-22,64.8,55.9,50.8,59.5,52.8,48.2,95,90,79,30.12,29.90,9,1,9,1.35
2013-5-23,77.8,63.6,53.6,69.6,60.1,51.7,95,89,72,29.95,29.80,16,3,16,0.50
2013-5-24,73.6,63.7,49.7,66.3,59.5,47.4,95,87,69,29.85,29.66,18,3,18,1.20
2013-5-25,52.9,48.6,41.6,51.0,46.3,37.7,94,92,84,29.84,29.72,14,3,14,0.38
2013-5-26,60.1,49.3,40.3,44.8,39.9,37.3,93,72,51,30.09,29.70,17,4,17,0.10
2013-5-27,72.9,58.4,39.8,46.4,39.6,33.8,91,55,25,30.19,30.08,20,2,20,0.00
2013-5-28,76.9,60.9,43.4,48.5,43.3,37.5,87,58,26,30.25,30.17,10,1,10,0.00
2013-5-29,69.1,61.9,54.7,63.5,57.9,48.2,94,87,78,30.20,30.00,4,1,4,0.54
2013-5-30,90.4,76.1,59.8,69.3,63.6,58.1,96,69,40,30.09,30.01,11,2,11,0.01
2013-5-31,97.0,82.1,63.7,70.8,64.7,59.7,90,60,33,30.10,29.93,12,2,12,0.00
2013-6-1,96.1,83.1,68.0,72.0,65.2,57.8,85,59,30,29.98,29.85,13,4,13,0.04
2013-6-2,92.9,80.4,70.6,71.0,67.0,61.5,91,67,36,29.88,29.71,19,5,19,0.08
2013-6-3,79.2,70.7,62.1,67.5,62.1,46.5,94,76,45,29.86,29.76,11,3,11,0.28
2013-6-4,72.4,63.8,53.6,48.1,44.9,40.9,67,52,37,30.11,29.83,15,3,15,0.00
2013-6-5,77.6,64.8,49.7,52.5,46.8,42.4,85,56,30,30.20,30.09,9,2,9,0.00
2013-6-6,78.8,66.3,54.9,57.6,52.5,48.6,84,62,40,30.20,30.12,9,1,9,0.00
2013-6-7,60.3,55.8,52.9,54.9,52.7,51.0,94,89,77,30.13,29.85,8,1,8,1.59
2013-6-8,80.1,64.9,52.9,63.9,57.5,51.2,95,79,56,30.00,29.65,10,3,10,0.86
2013-6-9,82.1,70.4,56.2,61.1,55.7,52.7,92,63,38,30.17,30.00,14,2,14,0.00
2013-6-10,73.8,64.1,55.8,59.8,56.4,51.3,92,77,59,30.22,30.04,5,1,5,0.48
2013-6-11,63.0,58.4,55.1,58.4,55.7,53.1,94,91,82,30.05,29.60,9,2,10,0.80
2013-6-12,73.1,63.9,56.9,58.4,55.6,52.8,94,76,56,29.83,29.57,14,3,14,0.01
2013-6-13,71.5,60.0,52.7,59.0,54.3,49.0,92,82,59,29.82,29.72,8,1,8,0.34
2013-6-14,76.7,63.6,53.8,61.6,54.9,52.0,94,76,47,29.78,29.67,8,1,8,0.49
2013-6-15,81.4,70.6,60.1,54.5,48.5,41.3,71,49,26,29.94,29.78,11,2,11,0.00
2013-6-16,79.6,67.8,53.6,59.7,53.7,48.3,86,63,37,29.94,29.71,16,2,16,0.00
2013-6-17,87.5,70.7,58.0,63.9,59.2,53.8,91,70,38,29.92,29.78,14,3,14,0.09
2013-6-18,77.9,62.5,58.7,65.1,59.2,56.3,94,89,59,29.96,29.90,5,1,5,0.47
2013-6-19,80.1,67.1,55.4,61.2,52.5,42.8,93,64,32,30.16,29.93,8,1,8,0.00
2013-6-20,81.2,67.9,50.8,58.1,50.8,46.6,87,59,33,30.27,30.16,11,2,11,0.00
2013-6-21,87.5,73.4,57.8,62.8,55.8,47.3,86,58,27,30.26,30.20,9,2,9,0.00
2013-6-22,87.3,74.9,61.6,66.9,61.2,57.1,89,65,43,30.23,30.11,13,3,13,0.00
2013-6-23,92.5,79.2,65.3,71.8,66.3,60.2,86,66,48,30.16,29.97,14,3,14,0.01
2013-6-24,98.6,83.0,72.0,72.5,69.2,64.4,91,67,36,30.02,29.87,13,3,13,0.12
2013-6-25,94.3,80.8,70.4,72.4,68.7,65.8,91,69,43,29.94,29.73,13,3,13,0.22
2013-6-26,88.9,74.2,64.8,74.3,69.3,62.3,93,86,54,29.88,29.73,7,1,7,1.00
2013-6-27,71.6,65.4,61.2,67.1,62.8,59.5,95,91,84,29.90,29.78,5,1,5,0.22
2013-6-28,83.2,68.4,58.0,73.6,64.7,56.3,96,88,72,29.79,29.49,12,2,12,0.24
2013-6-29,86.2,77.4,71.5,71.6,68.6,66.2,92,76,53,29.73,29.52,14,4,14,0.00
2013-6-30,89.3,78.7,67.5,73.4,68.9,64.4,93,74,50,29.94,29.72,12,4,12,0.00
2013-7-1,82.3,74.9,72.2,75.6,70.9,68.3,94,87,75,30.09,29.94,8,1,8,0.93
2013-7-2,83.5,70.5,61.0,76.2,67.6,59.1,95,91,72,30.23,30.08,6,1,8,0.17
2013-7-3,90.4,75.5,61.0,74.7,67.9,59.1,95,79,56,30.23,30.13,10,3,10,0.00
2013-7-4,94.7,84.5,72.7,76.6,72.9,69.3,92,70,49,30.21,30.08,13,4,13,0.00
2013-7-5,96.7,86.6,76.7,76.8,73.5,71.2,87,67,47,30.16,30.03,12,4,12,0.00
2013-7-6,94.0,84.8,75.6,74.9,70.4,63.1,87,64,47,30.08,29.98,10,3,10,0.00
2013-7-7,93.8,81.7,68.9,75.4,68.3,62.9,83,65,45,30.03,29.91,10,2,10,0.00
2013-7-8,87.7,77.2,66.8,76.6,69.9,64.0,92,79,63,30.09,29.92,8,1,8,0.49
2013-7-9,75.1,69.9,65.9,68.2,65.4,63.2,91,86,78,30.13,30.06,5,1,5,0.00
2013-7-10,84.6,73.2,66.4,76.7,69.5,63.4,94,88,73,30.09,29.80,13,1,13,0.30
2013-7-11,85.7,76.3,72.2,75.1,72.0,68.1,95,87,65,29.95,29.77,10,2,10,0.12
2013-7-12,85.0,74.3,67.1,69.4,61.3,56.2,92,66,43,30.22,29.95,8,2,8,0.00
2013-7-13,83.5,74.0,65.7,70.2,64.4,59.0,88,73,56,30.33,30.22,7,1,7,0.00
2013-7-14,95.8,81.8,70.4,76.3,71.3,66.0,94,73,46,30.31,30.21,6,1,6,0.00
2013-7-15,96.8,83.7,70.9,76.3,70.9,67.1,90,68,43,30.22,30.10,8,1,8,0.00
2013-7-16,97.6,84.6,71.8,74.0,69.1,64.5,81,62,41,30.18,30.12,10,2,10,0.00
2013-7-17,96.5,84.8,71.6,75.0,70.6,66.5,88,65,42,30.19,29.98,9,2,9,0.00
2013-7-18,97.6,84.7,74.5,75.1,71.5,65.1,91,67,38,30.03,29.95,10,2,10,0.05
2013-7-19,99.4,86.8,73.1,77.5,73.2,69.3,91,67,41,29.95,29.71,16,4,16,0.00
2013-7-20,95.6,85.4,76.9,76.4,69.7,63.6,76,60,47,29.82,29.66,13,3,13,0.00
2013-7-21,87.1,76.4,67.1,68.3,64.7,61.0,86,68,51,30.01,29.82,5,1,5,0.00
2013-7-22,85.9,75.3,68.9,72.1,67.3,63.5,89,77,59,30.04,29.91,7,1,7,0.00
2013-7-23,71.6,70.0,68.8,66.7,65.9,65.0,92,87,80,29.91,29.75,4,1,4,0.09
2013-7-29,78.5,75.4,70.7,72.2,69.2,66.7,87,81,75,30.01,29.88,6,2,6,0.01
2013-7-30,85.9,76.0,64.1,66.2,59.4,54.7,91,59,37,30.10,29.97,12,2,12,0.00
2013-7-31,85.1,73.7,62.1,64.3,59.5,54.3,86,64,37,30.14,30.04,7,2,7,0.00
2013-8-1,86.0,71.1,60.8,67.9,62.2,57.0,90,75,44,30.05,29.88,11,2,11,0.05
2013-8-2,85.9,72.9,64.8,72.0,63.9,57.1,95,77,39,29.88,29.68,9,2,9,0.56
2013-8-3,81.7,72.8,64.3,64.1,60.5,55.5,86,67,45,29.82,29.66,8,2,8,0.00
2013-8-4,84.1,70.6,58.7,64.5,57.9,54.0,85,66,43,29.81,29.67,7,2,7,0.08
2013-8-5,77.8,67.8,57.4,54.5,45.9,38.4,82,49,26,30.06,29.78,11,2,11,2.59
2013-8-6,83.5,66.8,50.9,58.7,51.0,45.8,86,60,32,30.17,30.06,8,1,8,0.00
2013-8-7,83.0,69.7,55.4,62.1,55.4,49.7,88,63,33,30.20,30.11,12,2,12,0.00
2013-8-8,83.3,73.7,64.4,71.0,65.4,56.4,89,76,64,30.13,30.01,13,3,13,0.03
2013-8-9,75.2,73.4,71.8,73.5,70.8,68.3,95,91,85,30.03,29.74,11,3,11,1.44
2013-8-10,86.6,75.5,64.4,71.0,61.0,50.1,95,65,33,30.03,29.79,13,2,13,0.02
2013-8-11,83.0,70.3,55.1,59.4,54.6,50.6,88,61,34,30.09,30.00,8,1,9,0.00
2013-8-12,84.2,71.9,58.7,62.1,57.5,52.2,90,64,35,30.04,29.92,10,2,10,0.00
2013-8-13,76.3,69.8,65.5,68.8,63.9,59.9,91,82,67,29.93,29.69,7,1,7,0.03
2013-8-14,77.4,69.1,61.7,63.8,55.0,50.7,92,63,42,29.97,29.67,13,3,14,0.00
2013-8-15,81.5,68.0,54.0,55.8,51.7,47.2,86,59,33,30.12,29.97,13,2,13,0.00
2013-8-16,82.1,68.2,53.6,58.3,54.0,49.0,88,63,39,30.20,30.11,8,2,8,0.00
2013-8-17,86.4,70.2,56.2,65.8,58.4,52.0,88,68,42,30.29,30.20,7,1,7,0.00
2013-8-18,83.5,70.8,58.5,65.7,59.9,54.6,89,70,43,30.29,30.09,8,1,8,0.00
2013-8-19,86.6,73.6,63.9,65.2,61.4,58.6,88,68,42,30.09,29.95,8,2,8,0.00
2013-8-20,88.6,76.5,63.0,68.0,62.6,57.7,85,64,42,30.10,29.98,6,1,6,0.00
2013-8-21,90.4,77.4,62.8,68.7,63.7,58.8,89,66,42,30.15,30.03,8,2,8,0.00
2013-8-22,91.1,77.5,64.3,71.7,66.0,59.5,89,70,42,30.04,29.82,12,3,12,0.00
2013-8-23,85.0,75.2,64.8,69.0,58.5,48.4,85,59,38,30.15,29.83,11,3,11,0.00
2013-8-24,82.1,68.1,54.5,55.7,49.5,45.2,80,55,30,30.32,30.15,8,2,8,0.00
2013-8-25,86.0,69.7,52.6,61.7,52.5,47.9,86,58,30,30.37,30.18,9,2,12,0.00
2013-8-26,84.6,72.6,64.6,68.0,62.2,55.7,87,71,54,30.18,29.87,12,3,12,0.01
2013-8-27,89.3,76.9,68.8,72.5,66.9,63.2,89,72,50,29.92,29.84,6,1,6,0.00
2013-8-28,90.7,75.1,63.4,71.9,65.1,59.8,90,73,49,30.00,29.87,7,1,7,0.00
2013-8-29,68.6,66.2,62.3,65.0,61.5,58.1,91,85,80,30.10,29.98,8,1,8,0.01
2013-8-30,86.0,72.4,59.0,68.3,63.1,56.3,93,74,52,30.04,29.82,9,2,9,0.00
2013-8-31,82.4,74.8,68.4,74.9,70.4,64.0,94,86,75,29.87,29.78,7,2,7,0.10
2013-9-1,85.7,77.4,70.9,74.0,71.4,68.3,94,82,64,29.90,29.79,9,3,9,0.17
2013-9-2,79.2,74.5,72.0,76.0,72.1,70.2,95,92,83,29.88,29.72,6,1,6,0.61
2013-9-3,85.5,74.3,65.9,74.4,67.6,58.1,95,80,60,29.82,29.71,8,2,8,0.00
2013-9-4,83.2,71.5,58.9,63.5,57.0,53.6,90,63,37,29.92,29.81,10,2,10,0.00
2013-9-5,76.0,66.0,55.1,60.0,51.2,41.9,84,61,33,30.16,29.86,13,2,13,0.00
2013-9-6,74.9,60.0,45.9,49.0,43.2,38.3,83,57,29,30.26,30.09,9,2,9,0.00
2013-9-7,82.4,66.4,49.9,59.2,51.4,44.7,87,61,33,30.09,29.85,10,2,10,0.00
2013-9-8,76.0,66.2,52.9,61.4,51.4,41.6,77,60,38,30.11,29.75,17,3,17,0.00
2013-9-9,70.9,59.1,44.1,50.2,44.3,39.2,87,61,37,30.25,30.10,9,2,9,0.00
2013-9-10,76.1,66.8,55.3,70.5,61.8,48.5,93,84,73,30.16,30.03,10,3,10,0.14
2013-9-11,96.5,82.5,68.4,77.9,71.4,66.2,94,72,45,30.07,29.93,12,3,12,0.00
2013-9-12,88.6,76.4,67.0,75.2,68.8,64.5,94,78,61,29.96,29.69,12,2,12,1.18
2013-9-13,79.4,68.6,60.1,73.1,64.0,54.0,95,86,66,29.77,29.59,11,2,11,0.23
2013-9-14,71.3,62.9,54.4,58.9,53.3,49.6,85,72,54,30.06,29.77,11,2,11,0.00
2013-9-15,73.4,61.3,48.4,55.7,49.4,44.7,92,68,37,30.17,30.05,10,2,10,0.00
2013-9-16,69.3,59.2,48.1,57.9,50.2,37.4,87,73,54,30.28,30.01,12,2,12,0.01
2013-9-17,68.2,52.8,40.9,45.4,40.0,35.7,86,65,37,30.44,30.28,9,2,9,0.00
2013-9-18,75.2,57.6,41.4,53.8,43.6,37.8,91,65,29,30.33,30.14,6,1,6,0.00
2013-9-19,83.5,66.0,46.6,60.9,52.2,42.9,90,65,38,30.14,30.04,6,1,6,0.00
2013-9-20,82.8,64.8,49.3,64.2,55.0,45.9,92,73,44,30.11,30.00,6,1,6,0.00
2013-9-21,76.5,64.8,49.7,64.7,57.8,46.3,95,79,58,30.04,29.74,15,4,16,0.00
2013-9-22,75.6,66.0,54.4,67.1,56.8,44.0,93,74,49,29.85,29.60,15,4,15,0.77
2013-9-23,67.3,54.7,48.1,45.2,42.0,39.4,76,63,43,30.01,29.85,23,3,23,0.00
2013-9-24,67.3,55.3,41.6,46.7,42.4,37.1,87,64,40,30.00,29.83,16,2,16,0.00
2013-9-25,72.4,57.4,44.5,53.7,47.6,40.9,90,72,43,30.00,29.89,8,1,8,0.00
2013-9-26,74.3,60.9,51.8,53.9,49.4,46.2,84,68,41,30.15,30.00,6,1,7,0.00
2013-9-27,69.1,60.8,52.2,55.7,52.3,48.1,87,74,58,30.27,30.15,8,1,8,0.00
2013-9-28,82.3,59.6,48.2,63.0,50.9,45.2,92,76,45,30.34,30.26,7,1,7,0.00
2013-9-29,73.4,56.6,47.2,57.8,47.9,42.9,93,75,41,30.28,30.14,5,1,6,0.00
2013-9-30,72.0,57.2,46.4,54.9,49.1,42.7,95,77,49,30.14,29.98,6,1,6,0.00
2013-10-1,84.2,62.8,48.4,60.5,51.7,44.7,92,71,35,29.98,29.85,9,1,10,0.00
2013-10-2,82.3,66.5,50.2,63.2,55.9,46.5,92,71,47,29.96,29.83,13,2,13,0.00
2013-10-3,79.2,65.6,50.4,58.6,51.8,45.2,90,65,32,30.10,29.96,8,1,8,0.00
2013-10-4,63.7,59.1,52.2,58.8,54.7,48.6,92,86,74,30.11,30.04,5,1,5,0.06
2013-10-5,74.9,62.6,57.8,61.9,56.2,54.2,92,80,56,30.14,30.07,8,1,8,0.00
2013-10-6,60.3,56.0,52.6,56.0,53.1,50.2,94,90,84,30.26,30.13,8,1,8,0.34
2013-10-7,79.0,66.1,56.2,71.2,62.1,54.5,96,87,67,30.16,29.80,20,4,20,0.29
2013-10-8,71.5,58.4,45.7,57.3,45.2,39.0,88,64,38,30.39,29.90,17,3,17,0.00
2013-10-9,68.8,52.3,41.4,49.8,42.8,37.3,88,72,46,30.49,30.38,9,1,9,0.00
2013-10-10,68.8,52.9,41.6,55.7,46.4,38.3,91,79,57,30.38,30.20,6,1,6,0.00
2013-10-11,76.7,59.6,47.3,57.0,47.2,37.8,91,68,28,30.20,30.12,8,1,8,0.00
2013-10-12,58.0,53.9,48.8,54.1,50.5,44.5,91,88,83,30.42,30.17,10,2,10,0.01
2013-10-13,66.1,52.1,42.3,56.3,45.9,38.5,94,80,57,30.47,30.39,8,1,8,0.00
2013-10-14,65.9,52.3,38.0,50.1,42.4,35.8,95,72,40,30.42,30.25,7,1,7,0.01
2013-10-15,64.6,57.8,52.9,54.9,51.1,48.0,89,79,65,30.28,30.19,8,1,8,0.00
2013-10-16,63.4,57.3,53.8,55.0,52.4,50.7,92,84,65,30.20,29.92,6,1,6,0.00
2013-10-17,76.0,61.6,52.9,61.9,52.3,45.9,96,75,37,29.93,29.72,10,2,10,0.00
2013-10-18,72.7,62.8,52.9,60.5,50.1,38.2,94,66,43,29.91,29.61,17,4,17,0.05
2013-10-19,69.5,56.2,39.6,47.3,41.4,35.2,87,60,39,29.98,29.76,10,2,10,0.00
2013-10-20,67.3,55.1,41.8,48.6,40.3,34.5,91,60,35,30.02,29.69,14,3,14,0.01
2013-10-21,68.2,51.2,35.6,44.4,38.2,31.2,87,64,38,30.12,29.99,10,2,10,0.00
2013-10-22,64.4,52.8,42.7,54.5,45.2,38.2,90,76,57,30.00,29.72,10,2,10,0.02
2013-10-23,58.3,46.5,35.6,41.7,35.0,31.8,89,66,43,29.81,29.59,7,1,7,0.00
2013-10-24,57.4,47.7,40.3,36.7,31.4,26.3,79,55,36,29.88,29.64,16,4,16,0.00
2013-10-25,52.9,42.8,34.2,36.9,31.2,24.9,86,65,43,30.15,29.88,12,2,13,0.00
2013-10-26,54.7,37.6,29.0,35.6,27.3,23.9,88,69,33,30.15,29.90,17,2,17,0.00
2013-10-28,60.1,50.6,37.3,36.1,31.3,23.4,59,48,40,30.36,30.08,16,4,16,0.00
2013-10-29,57.1,38.7,26.8,33.0,22.2,17.8,79,54,30,30.45,30.35,8,1,8,0.00
2013-10-30,50.9,39.0,31.0,40.8,31.2,21.4,87,74,60,30.37,30.20,5,1,5,0.04
2013-10-31,61.0,45.2,31.3,58.0,41.8,28.1,95,88,82,30.24,29.79,14,2,14,0.12
2013-11-1,70.4,64.9,57.8,62.9,57.5,52.5,93,77,61,29.79,29.41,26,8,26,0.04
2013-11-2,73.1,56.4,42.8,52.7,43.8,38.9,89,65,36,29.74,29.60,10,2,10,0.00
2013-11-3,51.5,41.9,31.7,45.5,28.4,15.8,83,61,35,30.43,29.74,9,3,11,0.00
2013-11-4,31.7,31.1,30.4,18.4,17.9,17.4,60,58,56,30.47,30.43,3,1,4,0.00
2013-11-5,49.3,41.9,35.6,30.2,28.8,27.2,77,61,45,30.57,30.51,3,0,3,0.00
2013-11-6,61.0,50.0,36.4,48.1,40.1,29.5,83,70,51,30.51,30.03,16,4,16,0.00
2013-11-7,64.4,54.7,41.4,57.4,49.3,35.3,89,82,70,30.03,29.67,15,4,15,0.11
2013-11-8,53.5,40.9,33.1,40.6,29.0,23.7,80,63,45,30.08,29.81,15,3,15,0.03
2013-11-9,49.5,40.6,32.9,29.4,24.7,21.4,68,54,38,30.21,30.03,13,3,13,0.00
2013-11-10,53.8,45.3,39.2,44.1,36.1,28.9,93,71,54,30.03,29.73,13,2,13,0.07
2013-11-11,56.0,46.6,40.0,33.0,28.8,25.2,68,51,36,30.10,29.84,17,4,17,0.00
2013-11-12,48.2,36.2,27.7,37.5,23.6,16.2,84,60,50,30.18,29.87,16,4,16,0.05
2013-11-13,42.1,32.6,26.1,19.5,14.6,11.4,65,48,37,30.29,30.14,14,4,14,0.00
2013-11-14,52.4,39.7,29.3,28.6,22.3,16.4,73,51,33,30.14,30.02,16,3,16,0.00
2013-11-15,60.5,41.3,27.2,26.6,21.5,16.0,79,51,18,30.19,30.09,10,2,10,0.00
2013-11-16,64.6,44.2,32.8,35.6,28.0,23.5,76,56,25,30.32,30.17,7,1,7,0.00
2013-11-17,52.4,42.9,30.6,50.1,38.5,24.7,93,84,74,30.32,29.85,5,1,5,0.03
2013-11-18,68.8,58.9,49.1,60.9,47.7,31.5,96,69,41,29.85,29.52,17,4,17,0.20
2013-11-19,49.0,39.3,32.2,31.9,19.8,15.7,53,46,34,30.28,29.65,25,7,25,0.00
2013-11-20,46.3,34.0,25.2,20.8,15.5,13.2,68,47,32,30.63,30.28,18,4,18,0.00
2013-11-21,51.5,35.0,20.2,29.0,19.3,13.5,80,56,29,30.64,30.36,11,1,11,0.00
2013-11-22,43.9,41.3,38.0,41.3,37.1,26.5,95,85,63,30.36,29.81,5,1,5,0.12
2013-11-23,48.8,39.9,30.2,44.6,27.8,12.2,95,64,42,29.92,29.77,18,6,18,0.01
2013-11-24,32.0,25.0,20.3,19.1,6.7,-1.1,82,47,31,30.18,29.78,24,8,24,0.00
2013-11-25,20.3,19.6,18.9,-0.1,-0.7,-1.3,41,40,39,30.23,30.18,13,6,13,0.00
2013-11-26,37.8,34.0,29.3,31.1,23.5,14.7,87,66,47,30.34,30.07,10,2,10,0.11
2013-11-27,62.8,52.8,34.9,60.5,50.8,31.3,96,93,87,30.06,29.23,15,4,15,1.54
2013-11-29,38.7,28.2,19.4,17.3,8.4,4.0,63,44,32,30.73,30.55,11,3,11,0.00
2013-11-30,41.4,25.3,13.0,22.0,14.2,6.8,81,64,33,30.80,30.43,8,1,8,0.00
2013-12-1,38.2,35.1,30.6,36.3,30.3,22.0,93,83,70,30.43,30.02,8,1,8,0.18
2013-12-2,40.3,38.6,37.1,38.4,36.5,35.2,94,92,91,30.03,29.93,8,1,8,0.01
2013-12-3,53.5,40.3,33.7,44.5,34.8,28.7,92,81,61,29.95,29.85,8,2,8,0.00
2013-12-4,42.5,33.2,28.1,32.8,27.4,24.9,91,80,57,30.20,29.95,10,1,10,0.00
2013-12-5,42.1,37.6,28.4,40.8,34.5,24.6,95,88,81,30.22,29.90,6,1,6,0.02
2013-12-6,49.0,44.6,34.0,46.9,40.2,31.1,95,85,63,30.17,29.85,11,2,11,0.10
2013-12-7,46.3,33.7,24.1,40.6,27.5,18.9,92,79,60,30.45,30.08,13,2,13,0.15
2013-12-8,31.3,26.8,19.8,22.9,19.7,16.5,90,75,61,30.59,30.44,5,1,5,0.00
2013-12-9,37.1,32.3,26.3,34.9,28.8,18.9,94,87,66,30.50,29.88,5,1,7,0.14
2013-12-10,35.5,32.0,24.8,33.6,27.1,14.0,95,83,62,29.98,29.82,12,3,12,0.01
2013-12-11,36.4,26.5,18.0,20.3,17.0,13.1,87,68,48,30.19,29.98,16,4,16,0.01
2013-12-12,32.9,22.6,16.9,19.1,7.4,0.0,81,53,34,30.26,30.05,17,4,17,0.00
2013-12-13,32.8,21.2,12.6,18.9,11.0,1.4,75,65,51,30.41,29.97,15,4,15,0.00
2013-12-14,18.2,13.5,9.0,12.9,3.1,-3.3,88,64,48,30.62,30.18,13,3,13,0.00
2013-12-15,28.8,22.5,15.8,26.8,20.0,12.8,92,90,85,30.20,29.43,18,4,18,0.00
2013-12-16,35.6,23.7,11.7,20.6,13.2,3.6,88,65,44,30.20,29.72,16,4,16,0.00
2013-12-17,20.2,11.8,-1.1,15.9,5.6,-6.8,90,77,53,30.29,29.96,14,2,14,0.00
2013-12-18,18.9,17.2,16.0,15.4,13.9,12.8,88,87,87,29.97,29.91,8,3,8,0.00
2013-12-19,41.4,34.7,28.6,26.0,24.2,22.0,81,66,52,30.11,29.94,14,3,14,0.06
2013-12-20,50.8,37.9,29.5,36.2,30.6,23.9,85,76,54,30.11,29.90,8,1,8,0.10
2013-12-21,56.5,45.0,34.6,46.7,39.1,30.7,91,80,65,29.95,29.84,8,2,8,0.00
2013-12-22,44.1,36.6,32.8,40.8,34.3,31.0,95,92,85,30.04,29.82,11,2,11,0.09
2013-12-23,36.9,33.8,31.7,35.6,32.4,30.2,95,94,93,30.11,29.98,6,1,6,0.24
2013-12-24,36.7,32.3,25.0,35.4,24.2,13.7,95,73,53,30.20,30.05,16,3,16,0.01
2013-12-25,25.2,23.2,21.6,14.3,10.9,8.6,63,59,56,30.26,30.20,16,6,16,0.00
2013-12-26,29.9,24.6,16.6,26.5,21.1,13.5,90,87,75,30.36,30.08,4,1,4,0.00
2013-12-27,33.7,25.3,12.4,25.4,18.5,9.3,92,76,61,30.26,30.18,10,2,10,0.03
2013-12-28,63.2,32.8,20.7,46.8,24.8,16.2,88,73,43,30.20,29.97,11,2,11,0.05
2013-12-29,40.3,34.3,27.9,34.8,29.8,23.4,93,84,71,30.03,29.46,18,2,18,1.06
2013-12-30,43.9,32.8,15.8,36.2,23.9,4.3,94,71,44,30.18,29.51,19,4,19,0.01
2013-12-31,27.9,18.1,11.0,14.3,4.9,-1.3,79,57,35,30.18,30.02,8,2,8,0.00
2014-1-1,32.2,21.3,15.5,13.3,8.3,5.2,73,58,39,30.38,30.16,16,3,16,0.00
2014-1-2,19.1,10.0,0.7,12.3,5.2,-3.3,84,81,71,30.36,29.89,19,5,19,0.00